sensor_id;sensor_type;location;lat;lon;timestamp;pressure;altitude;pressure_sealevel;temperature;humidity
32761;BME280;19126;47.472;7.850;2022-07-18T00:01:24;97333.97;;;15.30;100.00
32761;BME280;19126;47.472;7.850;2022-07-18T00:03:51;97341.66;;;15.24;100.00
32761;BME280;19126;47.472;7.850;2022-07-18T00:06:18;97342.03;;;15.21;100.00
32761;BME280;19126;47.472;7.850;2022-07-18T00:08:46;97350.78;;;15.22;100.00
32761;BME280;19126;47.472;7.850;2022-07-18T00:11:13;97346.97;;;15.24;100.00
32761;BME280;19126;47.472;7.850;2022-07-18T00:13:43;97349.78;;;15.23;100.00
32761;BME280;19126;47.472;7.850;2022-07-18T00:16:10;97347.59;;;15.12;100.00
32761;BME280;19126;47.472;7.850;2022-07-18T00:18:37;97345.16;;;15.10;100.00
32761;BME280;19126;47.472;7.850;2022-07-18T00:21:05;97342.94;;;15.14;100.00
32761;BME280;19126;47.472;7.850;2022-07-18T00:23:32;97339.94;;;15.17;100.00
32761;BME280;19126;47.472;7.850;2022-07-18T00:25:59;97338.84;;;15.11;100.00
32761;BME280;19126;47.472;7.850;2022-07-18T00:28:27;97342.88;;;15.07;100.00
32761;BME280;19126;47.472;7.850;2022-07-18T00:30:55;97339.97;;;15.02;100.00
32761;BME280;19126;47.472;7.850;2022-07-18T00:33:23;97339.50;;;14.98;100.00
32761;BME280;19126;47.472;7.850;2022-07-18T00:35:50;97339.81;;;14.88;100.00
32761;BME280;19126;47.472;7.850;2022-07-18T00:38:17;97335.88;;;14.84;100.00
32761;BME280;19126;47.472;7.850;2022-07-18T00:40:44;97340.34;;;14.84;100.00
32761;BME280;19126;47.472;7.850;2022-07-18T00:43:12;97328.50;;;14.79;100.00
32761;BME280;19126;47.472;7.850;2022-07-18T00:45:43;97339.91;;;14.80;100.00
32761;BME280;19126;47.472;7.850;2022-07-18T00:48:12;97337.78;;;14.75;100.00
32761;BME280;19126;47.472;7.850;2022-07-18T00:50:40;97336.50;;;14.71;100.00
32761;BME280;19126;47.472;7.850;2022-07-18T00:53:07;97341.13;;;14.69;100.00
32761;BME280;19126;47.472;7.850;2022-07-18T00:55:38;97343.34;;;14.65;100.00
32761;BME280;19126;47.472;7.850;2022-07-18T00:58:06;97345.88;;;14.59;100.00
32761;BME280;19126;47.472;7.850;2022-07-18T01:00:34;97343.13;;;14.52;100.00
32761;BME280;19126;47.472;7.850;2022-07-18T01:03:21;97343.03;;;14.45;100.00
32761;BME280;19126;47.472;7.850;2022-07-18T01:05:48;97341.75;;;14.41;100.00
32761;BME280;19126;47.472;7.850;2022-07-18T01:08:16;97340.75;;;14.42;100.00
32761;BME280;19126;47.472;7.850;2022-07-18T01:10:43;97339.28;;;14.40;100.00
32761;BME280;19126;47.472;7.850;2022-07-18T01:13:10;97342.75;;;14.40;100.00
32761;BME280;19126;47.472;7.850;2022-07-18T01:15:38;97338.13;;;14.42;100.00
32761;BME280;19126;47.472;7.850;2022-07-18T01:18:05;97338.13;;;14.42;100.00
32761;BME280;19126;47.472;7.850;2022-07-18T01:20:34;97341.28;;;14.38;100.00
32761;BME280;19126;47.472;7.850;2022-07-18T01:23:01;97345.94;;;14.35;100.00
32761;BME280;19126;47.472;7.850;2022-07-18T01:25:28;97346.50;;;14.31;100.00
32761;BME280;19126;47.472;7.850;2022-07-18T01:27:56;97343.00;;;14.15;100.00
32761;BME280;19126;47.472;7.850;2022-07-18T01:30:24;97337.72;;;14.15;100.00
32761;BME280;19126;47.472;7.850;2022-07-18T01:32:56;97349.09;;;14.16;100.00
32761;BME280;19126;47.472;7.850;2022-07-18T01:35:24;97342.72;;;14.10;100.00
32761;BME280;19126;47.472;7.850;2022-07-18T01:37:55;97347.00;;;14.11;100.00
32761;BME280;19126;47.472;7.850;2022-07-18T01:40:23;97343.44;;;14.04;100.00
32761;BME280;19126;47.472;7.850;2022-07-18T01:42:52;97350.00;;;14.08;100.00
32761;BME280;19126;47.472;7.850;2022-07-18T01:45:21;97347.22;;;14.01;100.00
32761;BME280;19126;47.472;7.850;2022-07-18T01:47:48;97355.88;;;13.95;100.00
32761;BME280;19126;47.472;7.850;2022-07-18T01:50:16;97357.22;;;13.91;100.00
32761;BME280;19126;47.472;7.850;2022-07-18T01:52:44;97359.56;;;13.86;100.00
32761;BME280;19126;47.472;7.850;2022-07-18T01:55:12;97357.00;;;13.77;100.00
32761;BME280;19126;47.472;7.850;2022-07-18T01:57:40;97358.00;;;13.76;100.00
32761;BME280;19126;47.472;7.850;2022-07-18T02:00:10;97365.47;;;13.73;100.00
32761;BME280;19126;47.472;7.850;2022-07-18T02:02:37;97370.09;;;13.71;100.00
32761;BME280;19126;47.472;7.850;2022-07-18T02:05:06;97367.81;;;13.68;100.00
32761;BME280;19126;47.472;7.850;2022-07-18T02:07:36;97369.59;;;13.67;100.00
32761;BME280;19126;47.472;7.850;2022-07-18T02:10:07;97370.78;;;13.65;100.00
32761;BME280;19126;47.472;7.850;2022-07-18T02:12:37;97365.88;;;13.61;100.00
32761;BME280;19126;47.472;7.850;2022-07-18T02:15:07;97368.00;;;13.58;100.00
32761;BME280;19126;47.472;7.850;2022-07-18T02:17:36;97368.22;;;13.56;100.00
32761;BME280;19126;47.472;7.850;2022-07-18T02:20:05;97360.44;;;13.55;100.00
32761;BME280;19126;47.472;7.850;2022-07-18T02:22:33;97364.91;;;13.54;100.00
32761;BME280;19126;47.472;7.850;2022-07-18T02:25:00;97361.78;;;13.51;100.00
32761;BME280;19126;47.472;7.850;2022-07-18T02:27:28;97357.50;;;13.50;100.00
32761;BME280;19126;47.472;7.850;2022-07-18T02:29:57;97363.81;;;13.40;100.00
32761;BME280;19126;47.472;7.850;2022-07-18T02:32:24;97352.94;;;13.35;100.00
32761;BME280;19126;47.472;7.850;2022-07-18T02:34:51;97357.41;;;13.34;100.00
32761;BME280;19126;47.472;7.850;2022-07-18T02:37:19;97351.84;;;13.29;100.00
32761;BME280;19126;47.472;7.850;2022-07-18T02:39:47;97350.34;;;13.27;100.00
32761;BME280;19126;47.472;7.850;2022-07-18T02:42:14;97355.13;;;13.23;100.00
32761;BME280;19126;47.472;7.850;2022-07-18T02:44:41;97348.56;;;13.19;100.00
32761;BME280;19126;47.472;7.850;2022-07-18T02:47:10;97344.81;;;13.13;100.00
32761;BME280;19126;47.472;7.850;2022-07-18T02:49:37;97348.09;;;13.15;100.00
32761;BME280;19126;47.472;7.850;2022-07-18T02:52:07;97352.22;;;13.10;100.00
32761;BME280;19126;47.472;7.850;2022-07-18T02:54:37;97358.69;;;13.07;100.00
32761;BME280;19126;47.472;7.850;2022-07-18T02:57:05;97360.19;;;13.01;100.00
32761;BME280;19126;47.472;7.850;2022-07-18T02:59:32;97358.06;;;12.97;100.00
32761;BME280;19126;47.472;7.850;2022-07-18T03:02:00;97353.59;;;12.97;100.00
32761;BME280;19126;47.472;7.850;2022-07-18T03:04:29;97352.31;;;12.93;100.00
32761;BME280;19126;47.472;7.850;2022-07-18T03:06:56;97357.56;;;12.93;100.00
32761;BME280;19126;47.472;7.850;2022-07-18T03:09:23;97350.00;;;12.90;100.00
32761;BME280;19126;47.472;7.850;2022-07-18T03:11:53;97361.41;;;12.90;100.00
32761;BME280;19126;47.472;7.850;2022-07-18T03:14:21;97357.91;;;12.90;100.00
32761;BME280;19126;47.472;7.850;2022-07-18T03:16:48;97358.09;;;12.88;100.00
32761;BME280;19126;47.472;7.850;2022-07-18T03:19:16;97355.28;;;12.90;100.00
32761;BME280;19126;47.472;7.850;2022-07-18T03:21:44;97358.91;;;12.89;100.00
32761;BME280;19126;47.472;7.850;2022-07-18T03:24:12;97359.25;;;12.86;100.00
32761;BME280;19126;47.472;7.850;2022-07-18T03:26:40;97359.59;;;12.83;100.00
32761;BME280;19126;47.472;7.850;2022-07-18T03:29:07;97358.13;;;12.80;100.00
32761;BME280;19126;47.472;7.850;2022-07-18T03:31:34;97358.47;;;12.77;100.00
32761;BME280;19126;47.472;7.850;2022-07-18T03:34:02;97355.34;;;12.73;100.00
32761;BME280;19126;47.472;7.850;2022-07-18T03:36:30;97362.44;;;12.73;100.00
32761;BME280;19126;47.472;7.850;2022-07-18T03:38:59;97353.22;;;12.69;100.00
32761;BME280;19126;47.472;7.850;2022-07-18T03:41:26;97358.66;;;12.67;100.00
32761;BME280;19126;47.472;7.850;2022-07-18T03:43:53;97362.63;;;12.63;100.00
32761;BME280;19126;47.472;7.850;2022-07-18T03:46:21;97360.31;;;12.60;99.62
32761;BME280;19126;47.472;7.850;2022-07-18T03:48:48;97366.75;;;12.57;98.38
32761;BME280;19126;47.472;7.850;2022-07-18T03:51:16;97363.47;;;12.55;97.95
32761;BME280;19126;47.472;7.850;2022-07-18T03:53:43;97362.97;;;12.52;98.95
32761;BME280;19126;47.472;7.850;2022-07-18T03:56:11;97363.81;;;12.52;98.27
32761;BME280;19126;47.472;7.850;2022-07-18T03:58:39;97362.63;;;12.55;97.69
32761;BME280;19126;47.472;7.850;2022-07-18T04:01:06;97364.16;;;12.49;98.43
32761;BME280;19126;47.472;7.850;2022-07-18T04:03:33;97367.28;;;12.44;96.56
32761;BME280;19126;47.472;7.850;2022-07-18T04:06:01;97367.13;;;12.46;95.70
32761;BME280;19126;47.472;7.850;2022-07-18T04:08:28;97374.84;;;12.48;94.77
32761;BME280;19126;47.472;7.850;2022-07-18T04:10:55;97372.72;;;12.51;95.96
32761;BME280;19126;47.472;7.850;2022-07-18T04:13:24;97374.81;;;12.56;97.48
32761;BME280;19126;47.472;7.850;2022-07-18T04:15:51;97368.41;;;12.58;98.81
32761;BME280;19126;47.472;7.850;2022-07-18T04:18:18;97368.72;;;12.64;99.22
32761;BME280;19126;47.472;7.850;2022-07-18T04:20:45;97369.03;;;12.69;98.82
32761;BME280;19126;47.472;7.850;2022-07-18T04:23:12;97371.16;;;12.73;97.15
32761;BME280;19126;47.472;7.850;2022-07-18T04:25:41;97367.19;;;12.78;96.23
32761;BME280;19126;47.472;7.850;2022-07-18T04:28:11;97367.84;;;12.80;97.07
32761;BME280;19126;47.472;7.850;2022-07-18T04:30:41;97368.84;;;12.79;96.03
32761;BME280;19126;47.472;7.850;2022-07-18T04:33:10;97365.38;;;12.78;96.82
32761;BME280;19126;47.472;7.850;2022-07-18T04:35:37;97363.41;;;12.80;96.06
32761;BME280;19126;47.472;7.850;2022-07-18T04:38:07;97355.97;;;12.84;94.92
32761;BME280;19126;47.472;7.850;2022-07-18T04:40:35;97358.44;;;12.85;94.70
32761;BME280;19126;47.472;7.850;2022-07-18T04:43:03;97354.47;;;12.89;95.09
32761;BME280;19126;47.472;7.850;2022-07-18T04:45:31;97363.03;;;12.92;95.54
32761;BME280;19126;47.472;7.850;2022-07-18T04:48:00;97359.06;;;12.96;95.70
32761;BME280;19126;47.472;7.850;2022-07-18T04:50:27;97358.53;;;13.00;95.56
32761;BME280;19126;47.472;7.850;2022-07-18T04:52:56;97364.13;;;13.05;96.92
32761;BME280;19126;47.472;7.850;2022-07-18T04:55:24;97361.13;;;13.09;98.01
32761;BME280;19126;47.472;7.850;2022-07-18T04:57:52;97357.16;;;13.13;100.00
32761;BME280;19126;47.472;7.850;2022-07-18T05:00:22;97359.59;;;13.23;100.00
32761;BME280;19126;47.472;7.850;2022-07-18T05:02:52;97362.72;;;13.26;99.56
32761;BME280;19126;47.472;7.850;2022-07-18T05:05:23;97359.41;;;13.32;97.54
32761;BME280;19126;47.472;7.850;2022-07-18T05:07:51;97363.50;;;13.35;97.88
32761;BME280;19126;47.472;7.850;2022-07-18T05:10:21;97360.34;;;13.40;96.92
32761;BME280;19126;47.472;7.850;2022-07-18T05:12:51;97361.84;;;13.42;95.69
32761;BME280;19126;47.472;7.850;2022-07-18T05:15:21;97357.84;;;13.46;94.71
32761;BME280;19126;47.472;7.850;2022-07-18T05:17:49;97358.66;;;13.55;95.24
32761;BME280;19126;47.472;7.850;2022-07-18T05:20:19;97355.13;;;13.63;94.35
32761;BME280;19126;47.472;7.850;2022-07-18T05:22:48;97358.69;;;13.70;95.70
32761;BME280;19126;47.472;7.850;2022-07-18T05:25:18;97361.84;;;13.89;95.50
32761;BME280;19126;47.472;7.850;2022-07-18T05:27:45;97348.13;;;14.32;94.76
32761;BME280;19126;47.472;7.850;2022-07-18T05:30:14;97352.13;;;14.81;98.54
32761;BME280;19126;47.472;7.850;2022-07-18T05:32:43;97347.59;;;15.12;100.00
32761;BME280;19126;47.472;7.850;2022-07-18T05:35:12;97343.34;;;15.47;100.00
32761;BME280;19126;47.472;7.850;2022-07-18T05:37:41;97349.38;;;16.00;100.00
32761;BME280;19126;47.472;7.850;2022-07-18T05:40:13;97348.81;;;16.33;100.00
32761;BME280;19126;47.472;7.850;2022-07-18T05:42:41;97345.28;;;16.54;100.00
32761;BME280;19126;47.472;7.850;2022-07-18T05:45:09;97343.94;;;17.00;100.00
32761;BME280;19126;47.472;7.850;2022-07-18T05:47:37;97339.34;;;17.29;100.00
32761;BME280;19126;47.472;7.850;2022-07-18T05:50:06;97331.66;;;17.54;99.53
32761;BME280;19126;47.472;7.850;2022-07-18T05:52:34;97342.34;;;18.01;96.84
32761;BME280;19126;47.472;7.850;2022-07-18T05:55:02;97340.53;;;18.29;92.24
32761;BME280;19126;47.472;7.850;2022-07-18T05:57:30;97344.38;;;18.47;85.48
32761;BME280;19126;47.472;7.850;2022-07-18T05:59:58;97325.25;;;18.97;87.42
32761;BME280;19126;47.472;7.850;2022-07-18T06:02:25;97336.25;;;19.14;83.51
32761;BME280;19126;47.472;7.850;2022-07-18T06:04:52;97337.81;;;19.28;82.84
32761;BME280;19126;47.472;7.850;2022-07-18T06:07:19;97323.84;;;19.72;77.90
32761;BME280;19126;47.472;7.850;2022-07-18T06:09:46;97329.66;;;19.87;77.12
32761;BME280;19126;47.472;7.850;2022-07-18T06:12:15;97330.06;;;19.98;81.03
32761;BME280;19126;47.472;7.850;2022-07-18T06:14:44;97328.38;;;20.29;78.51
32761;BME280;19126;47.472;7.850;2022-07-18T06:17:11;97327.72;;;20.52;76.46
32761;BME280;19126;47.472;7.850;2022-07-18T06:19:38;97324.63;;;20.74;76.75
32761;BME280;19126;47.472;7.850;2022-07-18T06:22:07;97317.75;;;21.03;73.00
32761;BME280;19126;47.472;7.850;2022-07-18T06:24:35;97321.50;;;21.33;71.86
32761;BME280;19126;47.472;7.850;2022-07-18T06:27:02;97318.72;;;21.40;71.37
32761;BME280;19126;47.472;7.850;2022-07-18T06:29:29;97316.41;;;21.74;69.31
32761;BME280;19126;47.472;7.850;2022-07-18T06:31:58;97322.16;;;21.89;68.21
32761;BME280;19126;47.472;7.850;2022-07-18T06:34:25;97319.75;;;22.23;68.99
32761;BME280;19126;47.472;7.850;2022-07-18T06:36:52;97321.88;;;22.57;67.15
32761;BME280;19126;47.472;7.850;2022-07-18T06:39:19;97322.03;;;22.91;66.36
32761;BME280;19126;47.472;7.850;2022-07-18T06:41:47;97315.31;;;23.30;63.80
32761;BME280;19126;47.472;7.850;2022-07-18T06:44:14;97317.56;;;23.50;62.88
32761;BME280;19126;47.472;7.850;2022-07-18T06:46:42;97312.75;;;23.81;62.36
32761;BME280;19126;47.472;7.850;2022-07-18T06:49:10;97317.19;;;24.04;58.65
32761;BME280;19126;47.472;7.850;2022-07-18T06:51:37;97319.28;;;24.36;60.94
32761;BME280;19126;47.472;7.850;2022-07-18T06:54:04;97319.53;;;24.74;60.83
32761;BME280;19126;47.472;7.850;2022-07-18T06:56:32;97311.88;;;24.83;52.89
32761;BME280;19126;47.472;7.850;2022-07-18T06:58:59;97317.38;;;25.43;50.79
32761;BME280;19126;47.472;7.850;2022-07-18T07:01:26;97319.38;;;25.80;49.68
32761;BME280;19126;47.472;7.850;2022-07-18T07:03:53;97315.19;;;26.22;47.33
32761;BME280;19126;47.472;7.850;2022-07-18T07:06:22;97314.63;;;26.63;46.35
32761;BME280;19126;47.472;7.850;2022-07-18T07:08:49;97306.88;;;26.77;42.47
32761;BME280;19126;47.472;7.850;2022-07-18T07:11:17;97314.19;;;26.82;42.17
32761;BME280;19126;47.472;7.850;2022-07-18T07:13:44;97308.47;;;27.42;44.44
32761;BME280;19126;47.472;7.850;2022-07-18T07:16:11;97299.34;;;27.74;45.08
32761;BME280;19126;47.472;7.850;2022-07-18T07:18:38;97307.06;;;27.29;39.46
32761;BME280;19126;47.472;7.850;2022-07-18T07:21:06;97301.75;;;27.49;40.89
32761;BME280;19126;47.472;7.850;2022-07-18T07:23:35;97305.22;;;27.45;38.44
32761;BME280;19126;47.472;7.850;2022-07-18T07:26:02;97301.69;;;27.34;39.52
32761;BME280;19126;47.472;7.850;2022-07-18T07:28:30;97292.88;;;27.80;43.37
32761;BME280;19126;47.472;7.850;2022-07-18T07:30:57;97289.09;;;27.60;39.49
32761;BME280;19126;47.472;7.850;2022-07-18T07:33:24;97298.28;;;27.96;40.83
32761;BME280;19126;47.472;7.850;2022-07-18T07:35:52;97297.69;;;28.45;41.26
32761;BME280;19126;47.472;7.850;2022-07-18T07:38:19;97290.28;;;28.92;39.19
32761;BME280;19126;47.472;7.850;2022-07-18T07:40:55;97299.31;;;29.28;39.89
32761;BME280;19126;47.472;7.850;2022-07-18T07:43:22;97300.00;;;29.54;41.29
32761;BME280;19126;47.472;7.850;2022-07-18T07:45:50;97297.22;;;29.14;37.35
32761;BME280;19126;47.472;7.850;2022-07-18T07:48:20;97303.06;;;29.32;39.18
32761;BME280;19126;47.472;7.850;2022-07-18T07:50:47;97301.50;;;29.20;38.34
32761;BME280;19126;47.472;7.850;2022-07-18T07:53:16;97298.53;;;29.22;40.59
32761;BME280;19126;47.472;7.850;2022-07-18T07:55:43;97298.44;;;29.43;40.09
32761;BME280;19126;47.472;7.850;2022-07-18T07:58:12;97289.50;;;29.42;39.85
32761;BME280;19126;47.472;7.850;2022-07-18T08:00:39;97296.72;;;29.57;38.65
32761;BME280;19126;47.472;7.850;2022-07-18T08:03:07;97297.88;;;29.80;37.98
32761;BME280;19126;47.472;7.850;2022-07-18T08:05:38;97295.72;;;30.17;40.08
32761;BME280;19126;47.472;7.850;2022-07-18T08:08:06;97301.84;;;30.28;39.45
32761;BME280;19126;47.472;7.850;2022-07-18T08:10:33;97296.94;;;30.60;37.95
32761;BME280;19126;47.472;7.850;2022-07-18T08:13:01;97293.69;;;30.58;37.93
32761;BME280;19126;47.472;7.850;2022-07-18T08:15:29;97294.94;;;30.11;36.48
32761;BME280;19126;47.472;7.850;2022-07-18T08:17:57;97291.34;;;30.46;40.04
32761;BME280;19126;47.472;7.850;2022-07-18T08:20:24;97293.94;;;30.85;38.58
32761;BME280;19126;47.472;7.850;2022-07-18T08:22:54;97299.28;;;31.34;38.98
32761;BME280;19126;47.472;7.850;2022-07-18T08:25:23;97291.28;;;31.24;39.63
32761;BME280;19126;47.472;7.850;2022-07-18T08:27:50;97292.97;;;31.58;37.53
32761;BME280;19126;47.472;7.850;2022-07-18T08:30:18;97297.09;;;31.55;39.02
32761;BME280;19126;47.472;7.850;2022-07-18T08:32:47;97290.34;;;32.05;36.87
32761;BME280;19126;47.472;7.850;2022-07-18T08:35:15;97282.06;;;31.44;35.58
32761;BME280;19126;47.472;7.850;2022-07-18T08:37:42;97288.13;;;31.55;38.93
32761;BME280;19126;47.472;7.850;2022-07-18T08:40:10;97286.00;;;31.71;36.29
32761;BME280;19126;47.472;7.850;2022-07-18T08:42:38;97280.84;;;31.69;35.95
32761;BME280;19126;47.472;7.850;2022-07-18T08:45:07;97281.22;;;31.63;37.42
32761;BME280;19126;47.472;7.850;2022-07-18T08:47:35;97277.03;;;31.90;40.60
32761;BME280;19126;47.472;7.850;2022-07-18T08:50:05;97274.72;;;32.30;38.00
32761;BME280;19126;47.472;7.850;2022-07-18T08:52:33;97275.22;;;31.66;35.48
32761;BME280;19126;47.472;7.850;2022-07-18T08:55:02;97274.03;;;32.52;37.20
32761;BME280;19126;47.472;7.850;2022-07-18T08:57:30;97274.03;;;32.80;36.55
32761;BME280;19126;47.472;7.850;2022-07-18T08:59:57;97262.88;;;33.18;36.89
32761;BME280;19126;47.472;7.850;2022-07-18T09:02:25;97270.94;;;33.24;37.60
32761;BME280;19126;47.472;7.850;2022-07-18T09:04:53;97271.13;;;33.41;36.60
32761;BME280;19126;47.472;7.850;2022-07-18T09:07:27;97264.16;;;33.35;35.18
32761;BME280;19126;47.472;7.850;2022-07-18T09:09:56;97263.94;;;32.81;34.67
32761;BME280;19126;47.472;7.850;2022-07-18T09:12:26;97264.97;;;32.71;34.29
32761;BME280;19126;47.472;7.850;2022-07-18T09:14:54;97262.53;;;32.97;36.79
32761;BME280;19126;47.472;7.850;2022-07-18T09:17:24;97263.09;;;33.59;34.74
32761;BME280;19126;47.472;7.850;2022-07-18T09:20:00;97264.41;;;33.61;35.16
32761;BME280;19126;47.472;7.850;2022-07-18T09:22:34;97266.88;;;32.84;32.82
32761;BME280;19126;47.472;7.850;2022-07-18T09:25:06;97264.94;;;32.85;31.84
32761;BME280;19126;47.472;7.850;2022-07-18T09:27:38;97267.47;;;32.81;32.21
32761;BME280;19126;47.472;7.850;2022-07-18T09:30:25;97262.94;;;32.63;32.34
32761;BME280;19126;47.472;7.850;2022-07-18T09:33:04;97270.28;;;32.76;31.75
32761;BME280;19126;47.472;7.850;2022-07-18T09:35:34;97257.81;;;32.33;31.49
32761;BME280;19126;47.472;7.850;2022-07-18T09:38:05;97257.69;;;32.38;32.18
32761;BME280;19126;47.472;7.850;2022-07-18T09:40:35;97256.81;;;32.43;31.64
32761;BME280;19126;47.472;7.850;2022-07-18T09:43:04;97254.75;;;32.21;31.75
32761;BME280;19126;47.472;7.850;2022-07-18T09:45:34;97248.78;;;32.05;31.57
32761;BME280;19126;47.472;7.850;2022-07-18T09:48:04;97251.16;;;32.39;31.82
32761;BME280;19126;47.472;7.850;2022-07-18T09:50:35;97258.31;;;32.35;31.67
32761;BME280;19126;47.472;7.850;2022-07-18T09:53:12;97252.38;;;32.75;33.38
32761;BME280;19126;47.472;7.850;2022-07-18T09:55:49;97253.38;;;33.44;30.82
32761;BME280;19126;47.472;7.850;2022-07-18T09:58:20;97256.97;;;33.39;29.45
32761;BME280;19126;47.472;7.850;2022-07-18T10:00:48;97249.41;;;33.13;29.76
32761;BME280;19126;47.472;7.850;2022-07-18T10:03:17;97247.09;;;33.66;30.57
32761;BME280;19126;47.472;7.850;2022-07-18T10:05:47;97249.91;;;33.75;29.07
32761;BME280;19126;47.472;7.850;2022-07-18T10:08:22;97254.63;;;33.92;29.98
32761;BME280;19126;47.472;7.850;2022-07-18T10:10:51;97253.00;;;34.14;28.86
32761;BME280;19126;47.472;7.850;2022-07-18T10:13:21;97249.50;;;34.13;28.17
32761;BME280;19126;47.472;7.850;2022-07-18T10:15:50;97249.41;;;33.96;29.47
32761;BME280;19126;47.472;7.850;2022-07-18T10:18:19;97237.81;;;34.53;29.76
32761;BME280;19126;47.472;7.850;2022-07-18T10:20:50;97240.97;;;35.04;31.34
32761;BME280;19126;47.472;7.850;2022-07-18T10:23:24;97249.19;;;35.40;29.12
32761;BME280;19126;47.472;7.850;2022-07-18T10:26:11;97238.91;;;35.63;29.73
32761;BME280;19126;47.472;7.850;2022-07-18T10:29:09;97241.31;;;35.29;27.97
32761;BME280;19126;47.472;7.850;2022-07-18T10:31:38;97235.81;;;34.85;28.80
32761;BME280;19126;47.472;7.850;2022-07-18T10:34:12;97237.59;;;35.08;28.26
32761;BME280;19126;47.472;7.850;2022-07-18T10:36:41;97235.69;;;35.26;30.17
32761;BME280;19126;47.472;7.850;2022-07-18T10:39:35;97228.94;;;35.05;27.86
32761;BME280;19126;47.472;7.850;2022-07-18T10:42:15;97230.56;;;35.15;27.64
32761;BME280;19126;47.472;7.850;2022-07-18T10:44:44;97231.66;;;35.41;30.47
32761;BME280;19126;47.472;7.850;2022-07-18T10:47:13;97231.53;;;35.55;28.24
32761;BME280;19126;47.472;7.850;2022-07-18T10:50:07;97242.38;;;35.99;28.92
32761;BME280;19126;47.472;7.850;2022-07-18T10:52:56;97235.56;;;35.48;30.57
32761;BME280;19126;47.472;7.850;2022-07-18T10:55:32;97238.00;;;36.15;27.86
32761;BME280;19126;47.472;7.850;2022-07-18T10:58:18;97232.69;;;36.58;28.96
32761;BME280;19126;47.472;7.850;2022-07-18T11:00:50;97224.03;;;36.77;29.79
32761;BME280;19126;47.472;7.850;2022-07-18T11:03:28;97235.53;;;36.91;28.88
32761;BME280;19126;47.472;7.850;2022-07-18T11:05:57;97227.53;;;36.56;27.74
32761;BME280;19126;47.472;7.850;2022-07-18T11:08:25;97231.28;;;36.51;26.43
32761;BME280;19126;47.472;7.850;2022-07-18T11:11:11;97219.63;;;36.25;27.21
32761;BME280;19126;47.472;7.850;2022-07-18T11:13:46;97215.88;;;36.38;26.54
32761;BME280;19126;47.472;7.850;2022-07-18T11:16:20;97211.66;;;36.49;28.83
32761;BME280;19126;47.472;7.850;2022-07-18T11:19:19;97210.88;;;36.01;25.74
32761;BME280;19126;47.472;7.850;2022-07-18T11:21:56;97221.16;;;35.87;25.87
32761;BME280;19126;47.472;7.850;2022-07-18T11:24:23;97216.72;;;35.64;25.41
32761;BME280;19126;47.472;7.850;2022-07-18T11:26:52;97218.97;;;36.28;25.79
32761;BME280;19126;47.472;7.850;2022-07-18T11:29:19;97213.69;;;36.22;25.26
32761;BME280;19126;47.472;7.850;2022-07-18T11:31:50;97211.44;;;36.25;26.62
32761;BME280;19126;47.472;7.850;2022-07-18T11:34:18;97204.38;;;36.15;25.36
32761;BME280;19126;47.472;7.850;2022-07-18T11:36:47;97208.34;;;35.70;25.81
32761;BME280;19126;47.472;7.850;2022-07-18T11:39:26;97207.47;;;36.04;26.26
32761;BME280;19126;47.472;7.850;2022-07-18T11:41:56;97202.47;;;36.15;27.06
32761;BME280;19126;47.472;7.850;2022-07-18T11:44:25;97193.78;;;36.13;24.51
32761;BME280;19126;47.472;7.850;2022-07-18T11:47:07;97198.34;;;36.30;25.74
32761;BME280;19126;47.472;7.850;2022-07-18T11:49:35;97191.63;;;36.58;27.42
32761;BME280;19126;47.472;7.850;2022-07-18T11:52:04;97192.78;;;36.78;27.25
32761;BME280;19126;47.472;7.850;2022-07-18T11:54:32;97195.78;;;37.15;27.27
32761;BME280;19126;47.472;7.850;2022-07-18T11:57:02;97197.53;;;36.90;24.52
32761;BME280;19126;47.472;7.850;2022-07-18T11:59:40;97179.44;;;37.19;24.99
32761;BME280;19126;47.472;7.850;2022-07-18T12:02:09;97181.63;;;36.83;25.46
32761;BME280;19126;47.472;7.850;2022-07-18T12:04:39;97184.31;;;36.92;25.64
32761;BME280;19126;47.472;7.850;2022-07-18T12:07:17;97184.94;;;37.19;25.16
32761;BME280;19126;47.472;7.850;2022-07-18T12:09:45;97177.19;;;37.21;24.87
32761;BME280;19126;47.472;7.850;2022-07-18T12:12:16;97181.91;;;37.33;25.22
32761;BME280;19126;47.472;7.850;2022-07-18T12:14:52;97177.28;;;37.12;25.13
32761;BME280;19126;47.472;7.850;2022-07-18T12:17:20;97182.38;;;36.92;24.38
32761;BME280;19126;47.472;7.850;2022-07-18T12:19:47;97171.88;;;36.94;26.10
32761;BME280;19126;47.472;7.850;2022-07-18T12:22:14;97169.84;;;37.13;24.64
32761;BME280;19126;47.472;7.850;2022-07-18T12:24:50;97173.47;;;36.95;25.29
32761;BME280;19126;47.472;7.850;2022-07-18T12:27:22;97169.53;;;37.14;24.23
32761;BME280;19126;47.472;7.850;2022-07-18T12:30:07;97177.31;;;37.24;26.17
32761;BME280;19126;47.472;7.850;2022-07-18T12:32:44;97168.44;;;37.06;24.53
32761;BME280;19126;47.472;7.850;2022-07-18T12:35:15;97168.69;;;37.14;25.42
32761;BME280;19126;47.472;7.850;2022-07-18T12:37:55;97165.22;;;37.26;25.06
32761;BME280;19126;47.472;7.850;2022-07-18T12:40:23;97163.78;;;37.41;23.66
32761;BME280;19126;47.472;7.850;2022-07-18T12:43:03;97160.22;;;37.74;24.78
32761;BME280;19126;47.472;7.850;2022-07-18T12:45:32;97160.78;;;37.55;25.08
32761;BME280;19126;47.472;7.850;2022-07-18T12:47:59;97158.41;;;37.90;26.37
32761;BME280;19126;47.472;7.850;2022-07-18T12:50:26;97148.13;;;37.75;25.13
32761;BME280;19126;47.472;7.850;2022-07-18T12:52:53;97151.00;;;37.91;25.57
32761;BME280;19126;47.472;7.850;2022-07-18T12:55:20;97143.50;;;38.00;25.74
32761;BME280;19126;47.472;7.850;2022-07-18T12:57:48;97151.50;;;38.18;25.52
32761;BME280;19126;47.472;7.850;2022-07-18T13:00:18;97141.75;;;38.08;27.04
32761;BME280;19126;47.472;7.850;2022-07-18T13:02:46;97147.47;;;38.03;24.75
32761;BME280;19126;47.472;7.850;2022-07-18T13:05:13;97142.44;;;38.05;24.58
32761;BME280;19126;47.472;7.850;2022-07-18T13:07:40;97142.44;;;38.17;24.66
32761;BME280;19126;47.472;7.850;2022-07-18T13:10:08;97135.59;;;38.23;26.52